sensor_id;sensor_type;location;lat;lon;timestamp;P1;durP1;ratioP1;P2;durP2;ratioP2
20743;SDS011;56303;52.160;-0.428;2024-03-06T00:02:21;15.00;;;12.47;;
20743;SDS011;56303;52.160;-0.428;2024-03-06T00:04:48;12.13;;;10.10;;
20743;SDS011;56303;52.160;-0.428;2024-03-06T00:07:14;14.80;;;10.97;;
20743;SDS011;56303;52.160;-0.428;2024-03-06T00:09:42;13.37;;;10.17;;
20743;SDS011;56303;52.160;-0.428;2024-03-06T00:12:09;17.43;;;12.37;;
20743;SDS011;56303;52.160;-0.428;2024-03-06T00:14:36;14.23;;;11.10;;
20743;SDS011;56303;52.160;-0.428;2024-03-06T00:17:03;15.47;;;12.03;;
20743;SDS011;56303;52.160;-0.428;2024-03-06T00:19:31;13.37;;;11.10;;
20743;SDS011;56303;52.160;-0.428;2024-03-06T00:21:59;19.50;;;13.43;;
20743;SDS011;56303;52.160;-0.428;2024-03-06T00:24:27;14.67;;;11.13;;
20743;SDS011;56303;52.160;-0.428;2024-03-06T00:26:54;14.17;;;11.43;;
20743;SDS011;56303;52.160;-0.428;2024-03-06T00:29:21;12.60;;;11.30;;
20743;SDS011;56303;52.160;-0.428;2024-03-06T00:31:48;17.23;;;13.13;;
20743;SDS011;56303;52.160;-0.428;2024-03-06T00:34:15;14.10;;;10.67;;
20743;SDS011;56303;52.160;-0.428;2024-03-06T00:36:42;13.33;;;11.00;;
20743;SDS011;56303;52.160;-0.428;2024-03-06T00:39:10;12.70;;;10.43;;
20743;SDS011;56303;52.160;-0.428;2024-03-06T00:41:37;12.97;;;10.57;;
20743;SDS011;56303;52.160;-0.428;2024-03-06T00:44:04;11.53;;;9.67;;
20743;SDS011;56303;52.160;-0.428;2024-03-06T00:46:32;13.87;;;9.63;;
20743;SDS011;56303;52.160;-0.428;2024-03-06T00:48:59;13.53;;;10.53;;
20743;SDS011;56303;52.160;-0.428;2024-03-06T00:51:26;14.10;;;11.00;;
20743;SDS011;56303;52.160;-0.428;2024-03-06T00:54:07;15.43;;;12.57;;
20743;SDS011;56303;52.160;-0.428;2024-03-06T00:56:37;16.10;;;10.70;;
20743;SDS011;56303;52.160;-0.428;2024-03-06T00:59:05;16.20;;;13.50;;
20743;SDS011;56303;52.160;-0.428;2024-03-06T01:01:32;14.63;;;11.90;;
20743;SDS011;56303;52.160;-0.428;2024-03-06T01:03:59;15.80;;;11.27;;
20743;SDS011;56303;52.160;-0.428;2024-03-06T01:06:26;13.47;;;11.00;;
20743;SDS011;56303;52.160;-0.428;2024-03-06T01:08:53;11.67;;;10.07;;
20743;SDS011;56303;52.160;-0.428;2024-03-06T01:11:21;13.50;;;10.87;;
20743;SDS011;56303;52.160;-0.428;2024-03-06T01:13:48;16.23;;;11.73;;
20743;SDS011;56303;52.160;-0.428;2024-03-06T01:16:15;14.50;;;11.23;;
20743;SDS011;56303;52.160;-0.428;2024-03-06T01:18:42;18.27;;;13.10;;
20743;SDS011;56303;52.160;-0.428;2024-03-06T01:21:09;18.80;;;14.33;;
20743;SDS011;56303;52.160;-0.428;2024-03-06T01:23:36;19.00;;;14.13;;
20743;SDS011;56303;52.160;-0.428;2024-03-06T01:26:03;21.37;;;14.80;;
20743;SDS011;56303;52.160;-0.428;2024-03-06T01:28:30;18.17;;;14.10;;
20743;SDS011;56303;52.160;-0.428;2024-03-06T01:30:57;19.33;;;15.47;;
20743;SDS011;56303;52.160;-0.428;2024-03-06T01:33:25;20.20;;;15.47;;
20743;SDS011;56303;52.160;-0.428;2024-03-06T01:35:53;18.47;;;13.57;;
20743;SDS011;56303;52.160;-0.428;2024-03-06T01:38:19;18.87;;;14.93;;
20743;SDS011;56303;52.160;-0.428;2024-03-06T01:40:46;19.93;;;14.83;;
20743;SDS011;56303;52.160;-0.428;2024-03-06T01:43:20;20.93;;;17.13;;
20743;SDS011;56303;52.160;-0.428;2024-03-06T01:45:48;20.80;;;16.87;;
20743;SDS011;56303;52.160;-0.428;2024-03-06T01:48:16;19.73;;;15.53;;
20743;SDS011;56303;52.160;-0.428;2024-03-06T01:50:46;19.60;;;15.40;;
20743;SDS011;56303;52.160;-0.428;2024-03-06T01:53:13;17.93;;;14.83;;
20743;SDS011;56303;52.160;-0.428;2024-03-06T01:55:43;23.23;;;17.93;;
20743;SDS011;56303;52.160;-0.428;2024-03-06T01:58:10;17.37;;;15.00;;
20743;SDS011;56303;52.160;-0.428;2024-03-06T02:00:37;19.90;;;13.50;;
20743;SDS011;56303;52.160;-0.428;2024-03-06T02:03:04;20.17;;;15.53;;
20743;SDS011;56303;52.160;-0.428;2024-03-06T02:05:32;20.30;;;16.20;;
20743;SDS011;56303;52.160;-0.428;2024-03-06T02:07:59;19.03;;;15.23;;
20743;SDS011;56303;52.160;-0.428;2024-03-06T02:10:29;20.37;;;16.30;;
20743;SDS011;56303;52.160;-0.428;2024-03-06T02:12:56;22.80;;;17.20;;
20743;SDS011;56303;52.160;-0.428;2024-03-06T02:15:24;19.93;;;15.93;;
20743;SDS011;56303;52.160;-0.428;2024-03-06T02:17:52;22.17;;;17.00;;
20743;SDS011;56303;52.160;-0.428;2024-03-06T02:20:25;20.30;;;17.10;;
20743;SDS011;56303;52.160;-0.428;2024-03-06T02:22:52;18.33;;;14.77;;
20743;SDS011;56303;52.160;-0.428;2024-03-06T02:25:19;18.43;;;15.53;;
20743;SDS011;56303;52.160;-0.428;2024-03-06T02:27:46;23.87;;;17.87;;
20743;SDS011;56303;52.160;-0.428;2024-03-06T02:30:20;18.90;;;15.93;;
20743;SDS011;56303;52.160;-0.428;2024-03-06T02:32:47;21.50;;;16.20;;
20743;SDS011;56303;52.160;-0.428;2024-03-06T02:35:14;20.13;;;16.20;;
20743;SDS011;56303;52.160;-0.428;2024-03-06T02:37:42;18.90;;;15.07;;
20743;SDS011;56303;52.160;-0.428;2024-03-06T02:40:10;21.50;;;16.93;;
20743;SDS011;56303;52.160;-0.428;2024-03-06T02:42:38;21.53;;;16.47;;
20743;SDS011;56303;52.160;-0.428;2024-03-06T02:45:06;19.83;;;16.80;;
20743;SDS011;56303;52.160;-0.428;2024-03-06T02:47:36;25.37;;;18.77;;
20743;SDS011;56303;52.160;-0.428;2024-03-06T02:50:03;19.43;;;17.37;;
20743;SDS011;56303;52.160;-0.428;2024-03-06T02:52:31;16.63;;;14.40;;
20743;SDS011;56303;52.160;-0.428;2024-03-06T02:54:58;20.60;;;15.57;;
20743;SDS011;56303;52.160;-0.428;2024-03-06T02:57:26;23.23;;;16.97;;
20743;SDS011;56303;52.160;-0.428;2024-03-06T02:59:57;19.93;;;16.70;;
20743;SDS011;56303;52.160;-0.428;2024-03-06T03:02:25;22.17;;;18.27;;
20743;SDS011;56303;52.160;-0.428;2024-03-06T03:04:52;19.90;;;17.33;;
20743;SDS011;56303;52.160;-0.428;2024-03-06T03:07:19;26.57;;;21.13;;
20743;SDS011;56303;52.160;-0.428;2024-03-06T03:09:47;21.57;;;16.57;;
20743;SDS011;56303;52.160;-0.428;2024-03-06T03:12:14;22.23;;;18.57;;
20743;SDS011;56303;52.160;-0.428;2024-03-06T03:14:41;21.47;;;16.90;;
20743;SDS011;56303;52.160;-0.428;2024-03-06T03:17:08;22.27;;;19.13;;
20743;SDS011;56303;52.160;-0.428;2024-03-06T03:19:35;21.27;;;15.23;;
20743;SDS011;56303;52.160;-0.428;2024-03-06T03:22:03;19.70;;;16.40;;
20743;SDS011;56303;52.160;-0.428;2024-03-06T03:24:30;22.17;;;16.77;;
20743;SDS011;56303;52.160;-0.428;2024-03-06T03:26:57;25.27;;;18.43;;
20743;SDS011;56303;52.160;-0.428;2024-03-06T03:29:24;19.00;;;15.90;;
20743;SDS011;56303;52.160;-0.428;2024-03-06T03:31:51;22.57;;;19.30;;
20743;SDS011;56303;52.160;-0.428;2024-03-06T03:34:19;19.40;;;15.80;;
20743;SDS011;56303;52.160;-0.428;2024-03-06T03:36:47;23.37;;;18.87;;
20743;SDS011;56303;52.160;-0.428;2024-03-06T03:39:15;29.13;;;20.27;;
20743;SDS011;56303;52.160;-0.428;2024-03-06T03:41:43;23.23;;;19.60;;
20743;SDS011;56303;52.160;-0.428;2024-03-06T03:44:14;25.60;;;20.03;;
20743;SDS011;56303;52.160;-0.428;2024-03-06T03:46:42;24.10;;;18.87;;
20743;SDS011;56303;52.160;-0.428;2024-03-06T03:49:09;20.60;;;18.17;;
20743;SDS011;56303;52.160;-0.428;2024-03-06T03:51:37;23.13;;;17.37;;
20743;SDS011;56303;52.160;-0.428;2024-03-06T03:54:05;22.97;;;17.70;;
20743;SDS011;56303;52.160;-0.428;2024-03-06T03:56:32;20.20;;;17.40;;
20743;SDS011;56303;52.160;-0.428;2024-03-06T03:59:00;19.63;;;17.53;;
20743;SDS011;56303;52.160;-0.428;2024-03-06T04:01:27;23.93;;;18.30;;
20743;SDS011;56303;52.160;-0.428;2024-03-06T04:03:54;25.10;;;19.30;;
20743;SDS011;56303;52.160;-0.428;2024-03-06T04:06:21;30.87;;;22.83;;
20743;SDS011;56303;52.160;-0.428;2024-03-06T04:08:48;24.07;;;19.60;;
20743;SDS011;56303;52.160;-0.428;2024-03-06T04:11:15;30.53;;;22.20;;
20743;SDS011;56303;52.160;-0.428;2024-03-06T04:13:42;22.93;;;18.27;;
20743;SDS011;56303;52.160;-0.428;2024-03-06T04:16:10;31.83;;;22.77;;
20743;SDS011;56303;52.160;-0.428;2024-03-06T04:18:41;21.17;;;17.13;;
20743;SDS011;56303;52.160;-0.428;2024-03-06T04:21:08;27.80;;;23.60;;
20743;SDS011;56303;52.160;-0.428;2024-03-06T04:23:36;28.13;;;20.43;;
20743;SDS011;56303;52.160;-0.428;2024-03-06T04:26:03;27.23;;;21.37;;
20743;SDS011;56303;52.160;-0.428;2024-03-06T04:28:30;28.57;;;22.87;;
20743;SDS011;56303;52.160;-0.428;2024-03-06T04:30:58;32.03;;;24.03;;
20743;SDS011;56303;52.160;-0.428;2024-03-06T04:33:24;26.87;;;21.80;;
20743;SDS011;56303;52.160;-0.428;2024-03-06T04:35:51;25.13;;;22.40;;
20743;SDS011;56303;52.160;-0.428;2024-03-06T04:38:18;30.00;;;23.53;;
20743;SDS011;56303;52.160;-0.428;2024-03-06T04:40:45;29.37;;;22.77;;
20743;SDS011;56303;52.160;-0.428;2024-03-06T04:43:12;28.53;;;23.77;;
20743;SDS011;56303;52.160;-0.428;2024-03-06T04:45:39;29.97;;;24.73;;
20743;SDS011;56303;52.160;-0.428;2024-03-06T04:48:06;36.17;;;26.97;;
20743;SDS011;56303;52.160;-0.428;2024-03-06T04:50:34;33.70;;;25.43;;
20743;SDS011;56303;52.160;-0.428;2024-03-06T04:53:00;29.40;;;24.30;;
20743;SDS011;56303;52.160;-0.428;2024-03-06T04:55:27;29.23;;;24.20;;
20743;SDS011;56303;52.160;-0.428;2024-03-06T04:57:56;29.57;;;23.50;;
20743;SDS011;56303;52.160;-0.428;2024-03-06T05:00:23;25.73;;;22.93;;
20743;SDS011;56303;52.160;-0.428;2024-03-06T05:02:50;30.53;;;23.57;;
20743;SDS011;56303;52.160;-0.428;2024-03-06T05:05:34;29.20;;;23.20;;
20743;SDS011;56303;52.160;-0.428;2024-03-06T05:08:19;25.80;;;21.23;;
20743;SDS011;56303;52.160;-0.428;2024-03-06T05:11:04;25.17;;;21.20;;
20743;SDS011;56303;52.160;-0.428;2024-03-06T05:13:48;27.23;;;20.80;;
20743;SDS011;56303;52.160;-0.428;2024-03-06T05:16:33;27.37;;;21.43;;
20743;SDS011;56303;52.160;-0.428;2024-03-06T05:19:18;35.93;;;26.00;;
20743;SDS011;56303;52.160;-0.428;2024-03-06T05:22:03;43.53;;;29.47;;
20743;SDS011;56303;52.160;-0.428;2024-03-06T05:24:49;43.17;;;29.17;;
20743;SDS011;56303;52.160;-0.428;2024-03-06T05:27:33;35.73;;;25.27;;
20743;SDS011;56303;52.160;-0.428;2024-03-06T05:30:18;35.57;;;27.30;;
20743;SDS011;56303;52.160;-0.428;2024-03-06T05:33:02;42.50;;;28.37;;
20743;SDS011;56303;52.160;-0.428;2024-03-06T05:35:46;32.03;;;23.40;;
20743;SDS011;56303;52.160;-0.428;2024-03-06T05:38:30;33.80;;;25.87;;
20743;SDS011;56303;52.160;-0.428;2024-03-06T05:41:14;34.30;;;23.40;;
20743;SDS011;56303;52.160;-0.428;2024-03-06T05:44:01;32.37;;;23.70;;
20743;SDS011;56303;52.160;-0.428;2024-03-06T05:46:47;34.83;;;25.20;;
20743;SDS011;56303;52.160;-0.428;2024-03-06T05:49:31;28.63;;;21.80;;
20743;SDS011;56303;52.160;-0.428;2024-03-06T05:52:16;37.40;;;23.33;;
20743;SDS011;56303;52.160;-0.428;2024-03-06T05:55:00;32.00;;;23.10;;
20743;SDS011;56303;52.160;-0.428;2024-03-06T05:57:44;33.17;;;22.97;;
20743;SDS011;56303;52.160;-0.428;2024-03-06T06:00:34;33.60;;;24.43;;
20743;SDS011;56303;52.160;-0.428;2024-03-06T06:03:01;35.37;;;24.93;;
20743;SDS011;56303;52.160;-0.428;2024-03-06T06:05:29;38.83;;;24.17;;
20743;SDS011;56303;52.160;-0.428;2024-03-06T06:07:56;35.50;;;24.30;;
20743;SDS011;56303;52.160;-0.428;2024-03-06T06:10:23;35.53;;;24.60;;
20743;SDS011;56303;52.160;-0.428;2024-03-06T06:12:50;43.67;;;23.97;;
20743;SDS011;56303;52.160;-0.428;2024-03-06T06:15:19;38.27;;;25.57;;
20743;SDS011;56303;52.160;-0.428;2024-03-06T06:17:46;38.13;;;22.50;;
20743;SDS011;56303;52.160;-0.428;2024-03-06T06:20:13;52.00;;;27.27;;
20743;SDS011;56303;52.160;-0.428;2024-03-06T06:22:43;68.47;;;34.40;;
20743;SDS011;56303;52.160;-0.428;2024-03-06T06:25:10;77.20;;;35.17;;
20743;SDS011;56303;52.160;-0.428;2024-03-06T06:27:37;71.90;;;30.33;;
20743;SDS011;56303;52.160;-0.428;2024-03-06T06:30:05;52.80;;;27.73;;
20743;SDS011;56303;52.160;-0.428;2024-03-06T06:32:38;105.90;;;37.50;;
20743;SDS011;56303;52.160;-0.428;2024-03-06T06:35:07;104.83;;;37.87;;
20743;SDS011;56303;52.160;-0.428;2024-03-06T06:37:36;102.67;;;40.60;;
20743;SDS011;56303;52.160;-0.428;2024-03-06T06:40:03;106.63;;;39.60;;
20743;SDS011;56303;52.160;-0.428;2024-03-06T06:42:36;151.83;;;42.50;;
20743;SDS011;56303;52.160;-0.428;2024-03-06T06:45:04;105.83;;;37.37;;
20743;SDS011;56303;52.160;-0.428;2024-03-06T06:47:36;171.37;;;48.53;;
20743;SDS011;56303;52.160;-0.428;2024-03-06T06:50:03;154.73;;;46.13;;
20743;SDS011;56303;52.160;-0.428;2024-03-06T06:52:32;99.57;;;36.77;;
20743;SDS011;56303;52.160;-0.428;2024-03-06T06:55:00;113.33;;;42.07;;
20743;SDS011;56303;52.160;-0.428;2024-03-06T06:57:28;117.53;;;39.50;;
20743;SDS011;56303;52.160;-0.428;2024-03-06T06:59:55;139.10;;;43.77;;
20743;SDS011;56303;52.160;-0.428;2024-03-06T07:02:22;94.43;;;35.07;;
20743;SDS011;56303;52.160;-0.428;2024-03-06T07:04:49;121.93;;;39.83;;
20743;SDS011;56303;52.160;-0.428;2024-03-06T07:07:16;269.57;;;59.27;;
20743;SDS011;56303;52.160;-0.428;2024-03-06T07:09:43;172.40;;;44.77;;
20743;SDS011;56303;52.160;-0.428;2024-03-06T07:12:11;186.83;;;46.70;;
20743;SDS011;56303;52.160;-0.428;2024-03-06T07:14:37;86.17;;;33.47;;
20743;SDS011;56303;52.160;-0.428;2024-03-06T07:17:04;87.67;;;33.60;;
20743;SDS011;56303;52.160;-0.428;2024-03-06T07:19:31;92.60;;;35.63;;
20743;SDS011;56303;52.160;-0.428;2024-03-06T07:21:58;68.23;;;30.77;;
20743;SDS011;56303;52.160;-0.428;2024-03-06T07:24:25;106.07;;;36.07;;
20743;SDS011;56303;52.160;-0.428;2024-03-06T07:26:52;122.33;;;36.60;;
20743;SDS011;56303;52.160;-0.428;2024-03-06T07:29:19;146.43;;;41.93;;
20743;SDS011;56303;52.160;-0.428;2024-03-06T07:31:46;97.20;;;35.30;;
20743;SDS011;56303;52.160;-0.428;2024-03-06T07:34:14;84.63;;;32.90;;
20743;SDS011;56303;52.160;-0.428;2024-03-06T07:36:41;164.33;;;40.53;;
20743;SDS011;56303;52.160;-0.428;2024-03-06T07:39:08;86.03;;;34.80;;
20743;SDS011;56303;52.160;-0.428;2024-03-06T07:41:35;156.27;;;41.47;;
20743;SDS011;56303;52.160;-0.428;2024-03-06T07:44:02;228.97;;;52.03;;
20743;SDS011;56303;52.160;-0.428;2024-03-06T07:46:29;85.37;;;30.53;;
20743;SDS011;56303;52.160;-0.428;2024-03-06T07:48:56;79.23;;;29.80;;
20743;SDS011;56303;52.160;-0.428;2024-03-06T07:51:23;98.90;;;31.30;;
20743;SDS011;56303;52.160;-0.428;2024-03-06T07:53:50;107.73;;;33.23;;
20743;SDS011;56303;52.160;-0.428;2024-03-06T07:56:18;54.73;;;25.63;;
20743;SDS011;56303;52.160;-0.428;2024-03-06T07:58:45;206.17;;;39.43;;
20743;SDS011;56303;52.160;-0.428;2024-03-06T08:01:12;352.83;;;55.43;;
20743;SDS011;56303;52.160;-0.428;2024-03-06T08:03:39;364.90;;;58.30;;
20743;SDS011;56303;52.160;-0.428;2024-03-06T08:06:07;119.67;;;32.47;;
20743;SDS011;56303;52.160;-0.428;2024-03-06T08:08:40;98.37;;;30.93;;
20743;SDS011;56303;52.160;-0.428;2024-03-06T08:11:07;67.03;;;27.57;;
20743;SDS011;56303;52.160;-0.428;2024-03-06T08:13:37;63.67;;;27.73;;
20743;SDS011;56303;52.160;-0.428;2024-03-06T08:16:05;65.50;;;27.43;;
20743;SDS011;56303;52.160;-0.428;2024-03-06T08:18:33;81.10;;;29.17;;
20743;SDS011;56303;52.160;-0.428;2024-03-06T08:21:01;105.77;;;33.93;;
20743;SDS011;56303;52.160;-0.428;2024-03-06T08:23:28;55.50;;;26.93;;
20743;SDS011;56303;52.160;-0.428;2024-03-06T08:25:56;50.63;;;25.27;;
20743;SDS011;56303;52.160;-0.428;2024-03-06T08:28:23;76.83;;;29.27;;
20743;SDS011;56303;52.160;-0.428;2024-03-06T08:30:50;109.03;;;32.10;;
20743;SDS011;56303;52.160;-0.428;2024-03-06T08:33:18;52.43;;;26.07;;
20743;SDS011;56303;52.160;-0.428;2024-03-06T08:35:47;54.17;;;24.73;;
20743;SDS011;56303;52.160;-0.428;2024-03-06T08:38:15;66.97;;;28.53;;
20743;SDS011;56303;52.160;-0.428;2024-03-06T08:40:43;49.13;;;27.07;;
20743;SDS011;56303;52.160;-0.428;2024-03-06T08:43:12;50.53;;;25.23;;
20743;SDS011;56303;52.160;-0.428;2024-03-06T08:45:42;57.73;;;30.43;;
20743;SDS011;56303;52.160;-0.428;2024-03-06T08:48:09;75.47;;;31.30;;
20743;SDS011;56303;52.160;-0.428;2024-03-06T08:50:38;85.20;;;31.43;;
20743;SDS011;56303;52.160;-0.428;2024-03-06T08:53:05;58.87;;;27.77;;
20743;SDS011;56303;52.160;-0.428;2024-03-06T08:55:32;99.87;;;34.00;;
20743;SDS011;56303;52.160;-0.428;2024-03-06T08:57:59;68.60;;;30.53;;
20743;SDS011;56303;52.160;-0.428;2024-03-06T09:00:28;98.73;;;36.37;;
20743;SDS011;56303;52.160;-0.428;2024-03-06T09:02:55;68.47;;;27.83;;
20743;SDS011;56303;52.160;-0.428;2024-03-06T09:05:21;75.60;;;30.37;;
20743;SDS011;56303;52.160;-0.428;2024-03-06T09:07:49;69.13;;;30.43;;
20743;SDS011;56303;52.160;-0.428;2024-03-06T09:10:16;48.50;;;24.97;;
20743;SDS011;56303;52.160;-0.428;2024-03-06T09:12:45;48.90;;;23.67;;
20743;SDS011;56303;52.160;-0.428;2024-03-06T09:15:14;50.97;;;26.07;;
20743;SDS011;56303;52.160;-0.428;2024-03-06T09:17:41;49.20;;;25.43;;
20743;SDS011;56303;52.160;-0.428;2024-03-06T09:20:08;46.07;;;24.40;;
20743;SDS011;56303;52.160;-0.428;2024-03-06T09:22:42;37.13;;;23.80;;
20743;SDS011;56303;52.160;-0.428;2024-03-06T09:25:09;50.87;;;26.03;;
20743;SDS011;56303;52.160;-0.428;2024-03-06T09:27:41;39.43;;;23.30;;
20743;SDS011;56303;52.160;-0.428;2024-03-06T09:30:08;39.77;;;22.90;;
20743;SDS011;56303;52.160;-0.428;2024-03-06T09:32:37;48.40;;;26.63;;
20743;SDS011;56303;52.160;-0.428;2024-03-06T09:35:05;58.60;;;29.50;;
20743;SDS011;56303;52.160;-0.428;2024-03-06T09:37:33;38.97;;;20.97;;
20743;SDS011;56303;52.160;-0.428;2024-03-06T09:40:00;53.23;;;25.77;;
20743;SDS011;56303;52.160;-0.428;2024-03-06T09:42:27;56.10;;;27.03;;
20743;SDS011;56303;52.160;-0.428;2024-03-06T09:44:54;55.83;;;26.63;;
20743;SDS011;56303;52.160;-0.428;2024-03-06T09:47:21;49.60;;;27.10;;
20743;SDS011;56303;52.160;-0.428;2024-03-06T09:49:53;43.20;;;24.07;;
20743;SDS011;56303;52.160;-0.428;2024-03-06T09:52:21;44.17;;;22.97;;
20743;SDS011;56303;52.160;-0.428;2024-03-06T09:54:53;54.00;;;28.67;;
20743;SDS011;56303;52.160;-0.428;2024-03-06T09:57:21;57.10;;;28.80;;
20743;SDS011;56303;52.160;-0.428;2024-03-06T09:59:48;44.47;;;25.17;;
20743;SDS011;56303;52.160;-0.428;2024-03-06T10:02:24;35.40;;;21.30;;
20743;SDS011;56303;52.160;-0.428;2024-03-06T10:04:55;48.73;;;27.43;;
20743;SDS011;56303;52.160;-0.428;2024-03-06T10:07:23;30.90;;;20.97;;
20743;SDS011;56303;52.160;-0.428;2024-03-06T10:09:50;39.37;;;23.53;;
20743;SDS011;56303;52.160;-0.428;2024-03-06T10:12:17;38.40;;;23.73;;
20743;SDS011;56303;52.160;-0.428;2024-03-06T10:14:49;44.33;;;26.47;;
20743;SDS011;56303;52.160;-0.428;2024-03-06T10:17:22;44.03;;;26.53;;
20743;SDS011;56303;52.160;-0.428;2024-03-06T10:19:54;41.57;;;25.20;;
20743;SDS011;56303;52.160;-0.428;2024-03-06T10:22:22;41.57;;;25.43;;
20743;SDS011;56303;52.160;-0.428;2024-03-06T10:24:55;40.47;;;26.10;;
20743;SDS011;56303;52.160;-0.428;2024-03-06T10:27:23;37.50;;;25.57;;
20743;SDS011;56303;52.160;-0.428;2024-03-06T10:30:02;41.13;;;25.87;;
20743;SDS011;56303;52.160;-0.428;2024-03-06T10:32:32;36.00;;;22.70;;
20743;SDS011;56303;52.160;-0.428;2024-03-06T10:34:59;41.10;;;25.67;;
20743;SDS011;56303;52.160;-0.428;2024-03-06T10:37:26;37.83;;;24.53;;
20743;SDS011;56303;52.160;-0.428;2024-03-06T10:39:55;41.27;;;26.27;;
20743;SDS011;56303;52.160;-0.428;2024-03-06T10:42:26;43.97;;;27.17;;
20743;SDS011;56303;52.160;-0.428;2024-03-06T10:44:56;46.53;;;28.63;;
20743;SDS011;56303;52.160;-0.428;2024-03-06T10:47:26;41.23;;;26.53;;
20743;SDS011;56303;52.160;-0.428;2024-03-06T10:49:55;38.33;;;26.07;;
20743;SDS011;56303;52.160;-0.428;2024-03-06T10:52:31;39.20;;;26.83;;
20743;SDS011;56303;52.160;-0.428;2024-03-06T10:54:59;41.23;;;29.17;;
20743;SDS011;56303;52.160;-0.428;2024-03-06T10:57:27;46.10;;;29.07;;
20743;SDS011;56303;52.160;-0.428;2024-03-06T10:59:56;38.63;;;27.00;;
20743;SDS011;56303;52.160;-0.428;2024-03-06T11:02:30;39.23;;;27.57;;
20743;SDS011;56303;52.160;-0.428;2024-03-06T11:04:58;44.77;;;26.70;;
20743;SDS011;56303;52.160;-0.428;2024-03-06T11:07:26;40.97;;;27.53;;
20743;SDS011;56303;52.160;-0.428;2024-03-06T11:09:54;39.33;;;27.33;;
20743;SDS011;56303;52.160;-0.428;2024-03-06T11:12:36;35.67;;;25.87;;
20743;SDS011;56303;52.160;-0.428;2024-03-06T11:15:14;34.20;;;26.33;;
20743;SDS011;56303;52.160;-0.428;2024-03-06T11:17:43;37.27;;;26.23;;
20743;SDS011;56303;52.160;-0.428;2024-03-06T11:20:17;35.67;;;25.87;;
20743;SDS011;56303;52.160;-0.428;2024-03-06T11:28:22;36.83;;;25.73;;
20743;SDS011;56303;52.160;-0.428;2024-03-06T11:33:20;28.23;;;23.57;;
20743;SDS011;56303;52.160;-0.428;2024-03-06T11:41:31;32.70;;;24.80;;
20743;SDS011;56303;52.160;-0.428;2024-03-06T11:44:14;33.73;;;25.07;;
20743;SDS011;56303;52.160;-0.428;2024-03-06T11:46:43;28.00;;;23.00;;
20743;SDS011;56303;52.160;-0.428;2024-03-06T11:49:14;28.00;;;23.20;;
20743;SDS011;56303;52.160;-0.428;2024-03-06T11:51:41;28.67;;;23.00;;
20743;SDS011;56303;52.160;-0.428;2024-03-06T11:54:08;27.77;;;23.07;;
20743;SDS011;56303;52.160;-0.428;2024-03-06T11:56:38;29.50;;;23.90;;
20743;SDS011;56303;52.160;-0.428;2024-03-06T11:59:06;27.33;;;22.10;;
20743;SDS011;56303;52.160;-0.428;2024-03-06T12:01:34;26.80;;;22.20;;
20743;SDS011;56303;52.160;-0.428;2024-03-06T12:04:03;26.67;;;20.53;;
20743;SDS011;56303;52.160;-0.428;2024-03-06T12:06:33;27.17;;;21.47;;
20743;SDS011;56303;52.160;-0.428;2024-03-06T12:09:00;23.23;;;20.43;;
20743;SDS011;56303;52.160;-0.428;2024-03-06T12:11:29;22.93;;;19.70;;
20743;SDS011;56303;52.160;-0.428;2024-03-06T12:13:58;26.23;;;20.80;;
20743;SDS011;56303;52.160;-0.428;2024-03-06T12:16:25;25.30;;;20.43;;
20743;SDS011;56303;52.160;-0.428;2024-03-06T12:18:55;23.67;;;19.17;;
20743;SDS011;56303;52.160;-0.428;2024-03-06T12:21:33;24.77;;;20.40;;
20743;SDS011;56303;52.160;-0.428;2024-03-06T12:26:32;21.90;;;19.10;;
20743;SDS011;56303;52.160;-0.428;2024-03-06T12:29:09;23.10;;;19.87;;
20743;SDS011;56303;52.160;-0.428;2024-03-06T12:31:38;24.17;;;21.63;;
20743;SDS011;56303;52.160;-0.428;2024-03-06T12:34:08;25.30;;;20.30;;
20743;SDS011;56303;52.160;-0.428;2024-03-06T12:36:43;24.03;;;18.97;;
20743;SDS011;56303;52.160;-0.428;2024-03-06T12:39:10;22.93;;;20.27;;
20743;SDS011;56303;52.160;-0.428;2024-03-06T12:41:40;23.80;;;21.30;;
20743;SDS011;56303;52.160;-0.428;2024-03-06T12:44:07;25.20;;;20.77;;
20743;SDS011;56303;52.160;-0.428;2024-03-06T12:46:34;26.40;;;21.37;;
20743;SDS011;56303;52.160;-0.428;2024-03-06T12:49:01;23.40;;;20.90;;
20743;SDS011;56303;52.160;-0.428;2024-03-06T12:51:28;25.13;;;21.53;;
20743;SDS011;56303;52.160;-0.428;2024-03-06T12:53:55;24.87;;;21.97;;
20743;SDS011;56303;52.160;-0.428;2024-03-06T12:56:22;26.37;;;22.73;;
20743;SDS011;56303;52.160;-0.428;2024-03-06T12:58:51;24.00;;;21.13;;
20743;SDS011;56303;52.160;-0.428;2024-03-06T13:01:18;25.77;;;21.10;;
20743;SDS011;56303;52.160;-0.428;2024-03-06T13:03:46;26.83;;;24.03;;
20743;SDS011;56303;52.160;-0.428;2024-03-06T13:06:13;23.17;;;20.67;;
20743;SDS011;56303;52.160;-0.428;2024-03-06T13:08:40;22.07;;;19.67;;
20743;SDS011;56303;52.160;-0.428;2024-03-06T13:11:07;24.17;;;20.73;;
20743;SDS011;56303;52.160;-0.428;2024-03-06T13:13:36;21.07;;;18.87;;
20743;SDS011;56303;52.160;-0.428;2024-03-06T13:16:03;19.70;;;17.63;;
20743;SDS011;56303;52.160;-0.428;2024-03-06T13:18:33;23.63;;;21.23;;
20743;SDS011;56303;52.160;-0.428;2024-03-06T13:21:00;22.70;;;20.40;;
20743;SDS011;56303;52.160;-0.428;2024-03-06T13:23:28;21.10;;;17.10;;
20743;SDS011;56303;52.160;-0.428;2024-03-06T13:25:55;19.57;;;17.47;;
20743;SDS011;56303;52.160;-0.428;2024-03-06T13:28:22;21.83;;;19.27;;
20743;SDS011;56303;52.160;-0.428;2024-03-06T13:30:49;23.73;;;19.83;;
20743;SDS011;56303;52.160;-0.428;2024-03-06T13:33:16;21.77;;;19.47;;
20743;SDS011;56303;52.160;-0.428;2024-03-06T13:35:44;23.10;;;20.70;;
20743;SDS011;56303;52.160;-0.428;2024-03-06T13:38:11;24.37;;;21.17;;
20743;SDS011;56303;52.160;-0.428;2024-03-06T13:40:38;23.13;;;19.83;;
20743;SDS011;56303;52.160;-0.428;2024-03-06T13:43:06;23.70;;;20.47;;
20743;SDS011;56303;52.160;-0.428;2024-03-06T13:45:34;20.10;;;18.00;;
20743;SDS011;56303;52.160;-0.428;2024-03-06T13:48:01;19.97;;;17.97;;
20743;SDS011;56303;52.160;-0.428;2024-03-06T13:50:29;20.97;;;18.77;;
20743;SDS011;56303;52.160;-0.428;2024-03-06T13:52:57;21.50;;;19.20;;
20743;SDS011;56303;52.160;-0.428;2024-03-06T13:55:24;20.43;;;17.97;;
20743;SDS011;56303;52.160;-0.428;2024-03-06T13:57:51;19.80;;;17.70;;
20743;SDS011;56303;52.160;-0.428;2024-03-06T14:00:18;19.63;;;17.53;;
20743;SDS011;56303;52.160;-0.428;2024-03-06T14:02:46;18.73;;;16.73;;
20743;SDS011;56303;52.160;-0.428;2024-03-06T14:05:13;21.70;;;17.77;;
20743;SDS011;56303;52.160;-0.428;2024-03-06T14:07:41;20.60;;;18.40;;
20743;SDS011;56303;52.160;-0.428;2024-03-06T14:10:08;20.77;;;18.47;;
20743;SDS011;56303;52.160;-0.428;2024-03-06T14:12:37;23.93;;;21.10;;
20743;SDS011;56303;52.160;-0.428;2024-03-06T14:15:05;25.17;;;21.17;;
20743;SDS011;56303;52.160;-0.428;2024-03-06T14:17:39;24.13;;;21.53;;
20743;SDS011;56303;52.160;-0.428;2024-03-06T14:20:07;23.57;;;19.70;;
20743;SDS011;56303;52.160;-0.428;2024-03-06T14:22:35;24.77;;;22.17;;
20743;SDS011;56303;52.160;-0.428;2024-03-06T14:25:02;25.03;;;21.80;;
20743;SDS011;56303;52.160;-0.428;2024-03-06T14:27:29;24.93;;;21.97;;
20743;SDS011;56303;52.160;-0.428;2024-03-06T14:29:56;25.57;;;20.60;;
20743;SDS011;56303;52.160;-0.428;2024-03-06T14:32:23;25.93;;;22.07;;
20743;SDS011;56303;52.160;-0.428;2024-03-06T14:34:52;25.53;;;22.37;;
20743;SDS011;56303;52.160;-0.428;2024-03-06T14:37:19;25.77;;;21.40;;